sensor_id;sensor_type;location;lat;lon;timestamp;temperature;humidity
51982;DHT22;37998;53.416;6.730;2022-12-07T00:02:16;5.40;99.90
51982;DHT22;37998;53.416;6.730;2022-12-07T00:04:41;5.40;99.90
51982;DHT22;37998;53.416;6.730;2022-12-07T00:07:07;5.40;99.90
51982;DHT22;37998;53.416;6.730;2022-12-07T00:09:33;5.50;99.90
51982;DHT22;37998;53.416;6.730;2022-12-07T00:11:58;5.50;99.90
51982;DHT22;37998;53.416;6.730;2022-12-07T00:14:24;5.50;99.90
51982;DHT22;37998;53.416;6.730;2022-12-07T00:16:51;4.40;99.90
51982;DHT22;37998;53.416;6.730;2022-12-07T00:19:17;5.50;99.90
51982;DHT22;37998;53.416;6.730;2022-12-07T00:21:43;5.60;99.90
51982;DHT22;37998;53.416;6.730;2022-12-07T00:24:10;5.70;99.90
51982;DHT22;37998;53.416;6.730;2022-12-07T00:26:38;5.70;99.90
51982;DHT22;37998;53.416;6.730;2022-12-07T00:29:11;5.70;99.90
51982;DHT22;37998;53.416;6.730;2022-12-07T00:31:38;5.70;99.90
51982;DHT22;37998;53.416;6.730;2022-12-07T00:34:05;5.70;99.90
51982;DHT22;37998;53.416;6.730;2022-12-07T00:36:31;5.70;99.90
51982;DHT22;37998;53.416;6.730;2022-12-07T00:38:58;5.60;99.90
51982;DHT22;37998;53.416;6.730;2022-12-07T00:41:25;5.60;99.90
51982;DHT22;37998;53.416;6.730;2022-12-07T00:43:52;5.50;99.90
51982;DHT22;37998;53.416;6.730;2022-12-07T00:46:18;5.50;99.90
51982;DHT22;37998;53.416;6.730;2022-12-07T00:48:45;5.60;99.90
51982;DHT22;37998;53.416;6.730;2022-12-07T00:51:12;5.70;99.90
51982;DHT22;37998;53.416;6.730;2022-12-07T00:53:38;5.70;99.90
51982;DHT22;37998;53.416;6.730;2022-12-07T00:56:33;5.70;99.90
51982;DHT22;37998;53.416;6.730;2022-12-07T00:59:01;5.70;99.90
51982;DHT22;37998;53.416;6.730;2022-12-07T01:01:29;5.60;99.90
51982;DHT22;37998;53.416;6.730;2022-12-07T01:03:55;5.60;99.90
51982;DHT22;37998;53.416;6.730;2022-12-07T01:06:22;5.60;99.90
51982;DHT22;37998;53.416;6.730;2022-12-07T01:08:48;5.60;99.90
51982;DHT22;37998;53.416;6.730;2022-12-07T01:11:16;5.70;99.90
51982;DHT22;37998;53.416;6.730;2022-12-07T01:13:42;5.70;99.90
51982;DHT22;37998;53.416;6.730;2022-12-07T01:16:12;5.70;99.90
51982;DHT22;37998;53.416;6.730;2022-12-07T01:18:38;5.60;99.90
51982;DHT22;37998;53.416;6.730;2022-12-07T01:23:34;5.60;99.90
51982;DHT22;37998;53.416;6.730;2022-12-07T01:26:02;5.60;99.90
51982;DHT22;37998;53.416;6.730;2022-12-07T01:28:29;5.60;99.90
51982;DHT22;37998;53.416;6.730;2022-12-07T01:31:05;5.60;99.90
51982;DHT22;37998;53.416;6.730;2022-12-07T01:33:34;5.60;99.90
51982;DHT22;37998;53.416;6.730;2022-12-07T01:38:39;5.60;99.90
51982;DHT22;37998;53.416;6.730;2022-12-07T01:41:05;5.70;99.90
51982;DHT22;37998;53.416;6.730;2022-12-07T01:43:33;5.60;99.90
51982;DHT22;37998;53.416;6.730;2022-12-07T01:46:00;5.60;99.90
51982;DHT22;37998;53.416;6.730;2022-12-07T01:48:33;5.60;99.90
51982;DHT22;37998;53.416;6.730;2022-12-07T01:51:04;5.50;99.90
51982;DHT22;37998;53.416;6.730;2022-12-07T01:53:32;5.50;99.90
51982;DHT22;37998;53.416;6.730;2022-12-07T01:55:59;5.40;99.90
51982;DHT22;37998;53.416;6.730;2022-12-07T01:58:25;5.40;99.90
51982;DHT22;37998;53.416;6.730;2022-12-07T02:00:51;5.40;99.90
51982;DHT22;37998;53.416;6.730;2022-12-07T02:03:30;5.30;99.90
51982;DHT22;37998;53.416;6.730;2022-12-07T02:05:57;5.30;99.90
51982;DHT22;37998;53.416;6.730;2022-12-07T02:08:25;5.20;99.90
51982;DHT22;37998;53.416;6.730;2022-12-07T02:10:51;5.20;99.90
51982;DHT22;37998;53.416;6.730;2022-12-07T02:13:19;5.10;99.90
51982;DHT22;37998;53.416;6.730;2022-12-07T02:29:54;5.10;99.90
51982;DHT22;37998;53.416;6.730;2022-12-07T02:32:43;5.00;99.90
51982;DHT22;37998;53.416;6.730;2022-12-07T02:35:16;5.10;99.90
51982;DHT22;37998;53.416;6.730;2022-12-07T02:37:51;5.10;99.90
51982;DHT22;37998;53.416;6.730;2022-12-07T02:42:58;5.00;99.90
51982;DHT22;37998;53.416;6.730;2022-12-07T02:45:27;5.00;99.90
51982;DHT22;37998;53.416;6.730;2022-12-07T02:47:57;5.10;99.90
51982;DHT22;37998;53.416;6.730;2022-12-07T02:50:24;5.10;99.90
51982;DHT22;37998;53.416;6.730;2022-12-07T02:52:50;5.20;99.90
51982;DHT22;37998;53.416;6.730;2022-12-07T02:55:18;5.20;99.90
51982;DHT22;37998;53.416;6.730;2022-12-07T03:00:15;5.10;99.90
51982;DHT22;37998;53.416;6.730;2022-12-07T03:02:54;5.10;99.90
51982;DHT22;37998;53.416;6.730;2022-12-07T03:08:41;5.10;99.90
51982;DHT22;37998;53.416;6.730;2022-12-07T03:11:16;5.00;99.90
51982;DHT22;37998;53.416;6.730;2022-12-07T03:16:26;4.90;99.90
51982;DHT22;37998;53.416;6.730;2022-12-07T03:18:57;4.90;99.90
51982;DHT22;37998;53.416;6.730;2022-12-07T03:21:27;4.90;99.90
51982;DHT22;37998;53.416;6.730;2022-12-07T03:23:56;4.90;99.90
51982;DHT22;37998;53.416;6.730;2022-12-07T03:26:28;4.90;99.90
51982;DHT22;37998;53.416;6.730;2022-12-07T03:28:56;5.00;99.90
51982;DHT22;37998;53.416;6.730;2022-12-07T03:31:32;5.10;99.90
51982;DHT22;37998;53.416;6.730;2022-12-07T03:34:32;5.10;99.90
51982;DHT22;37998;53.416;6.730;2022-12-07T03:37:11;5.10;99.90
51982;DHT22;37998;53.416;6.730;2022-12-07T03:40:03;5.10;99.90
51982;DHT22;37998;53.416;6.730;2022-12-07T03:42:31;5.20;99.90
51982;DHT22;37998;53.416;6.730;2022-12-07T03:44:58;5.20;99.90
51982;DHT22;37998;53.416;6.730;2022-12-07T03:55:28;5.10;99.90
51982;DHT22;37998;53.416;6.730;2022-12-07T03:58:02;5.10;99.90
51982;DHT22;37998;53.416;6.730;2022-12-07T04:00:29;5.00;99.90
51982;DHT22;37998;53.416;6.730;2022-12-07T04:02:55;5.00;99.90
51982;DHT22;37998;53.416;6.730;2022-12-07T04:05:22;5.00;99.90
51982;DHT22;37998;53.416;6.730;2022-12-07T04:07:48;5.00;99.90
51982;DHT22;37998;53.416;6.730;2022-12-07T04:10:14;5.00;99.90
51982;DHT22;37998;53.416;6.730;2022-12-07T04:12:39;5.10;99.90
51982;DHT22;37998;53.416;6.730;2022-12-07T04:15:06;5.10;99.90
51982;DHT22;37998;53.416;6.730;2022-12-07T04:17:31;5.10;99.90
51982;DHT22;37998;53.416;6.730;2022-12-07T04:19:57;5.00;99.90
51982;DHT22;37998;53.416;6.730;2022-12-07T04:22:23;5.00;99.90
51982;DHT22;37998;53.416;6.730;2022-12-07T04:24:49;5.00;99.90
51982;DHT22;37998;53.416;6.730;2022-12-07T04:27:14;5.00;99.90
51982;DHT22;37998;53.416;6.730;2022-12-07T04:29:40;5.00;99.90
51982;DHT22;37998;53.416;6.730;2022-12-07T04:32:05;5.00;99.90
51982;DHT22;37998;53.416;6.730;2022-12-07T04:34:31;5.00;99.90
51982;DHT22;37998;53.416;6.730;2022-12-07T04:36:57;5.00;99.90
51982;DHT22;37998;53.416;6.730;2022-12-07T04:39:26;5.00;99.90
51982;DHT22;37998;53.416;6.730;2022-12-07T04:41:52;5.00;99.90
51982;DHT22;37998;53.416;6.730;2022-12-07T04:44:18;5.00;99.90
51982;DHT22;37998;53.416;6.730;2022-12-07T04:46:44;4.90;99.90
51982;DHT22;37998;53.416;6.730;2022-12-07T04:49:12;4.90;99.90
51982;DHT22;37998;53.416;6.730;2022-12-07T04:51:38;4.80;99.90
51982;DHT22;37998;53.416;6.730;2022-12-07T04:54:04;4.80;99.90
51982;DHT22;37998;53.416;6.730;2022-12-07T04:56:29;4.80;99.90
51982;DHT22;37998;53.416;6.730;2022-12-07T04:58:55;4.70;99.90
51982;DHT22;37998;53.416;6.730;2022-12-07T05:01:21;4.70;99.90
51982;DHT22;37998;53.416;6.730;2022-12-07T05:03:47;4.70;99.90
51982;DHT22;37998;53.416;6.730;2022-12-07T05:06:13;4.70;99.90
51982;DHT22;37998;53.416;6.730;2022-12-07T05:08:40;4.70;99.90
51982;DHT22;37998;53.416;6.730;2022-12-07T05:11:06;4.70;99.90
51982;DHT22;37998;53.416;6.730;2022-12-07T05:13:32;4.70;99.90
51982;DHT22;37998;53.416;6.730;2022-12-07T05:15:58;4.70;99.90
51982;DHT22;37998;53.416;6.730;2022-12-07T05:18:24;4.70;99.90
51982;DHT22;37998;53.416;6.730;2022-12-07T05:20:50;4.70;99.90
51982;DHT22;37998;53.416;6.730;2022-12-07T05:23:16;4.70;99.90
51982;DHT22;37998;53.416;6.730;2022-12-07T05:25:43;4.70;99.90
51982;DHT22;37998;53.416;6.730;2022-12-07T05:28:08;4.70;99.90
51982;DHT22;37998;53.416;6.730;2022-12-07T05:30:34;4.70;99.90
51982;DHT22;37998;53.416;6.730;2022-12-07T05:33:00;4.70;99.90
51982;DHT22;37998;53.416;6.730;2022-12-07T05:35:26;4.70;99.90
51982;DHT22;37998;53.416;6.730;2022-12-07T05:37:51;4.80;99.90
51982;DHT22;37998;53.416;6.730;2022-12-07T05:40:17;4.80;99.90
51982;DHT22;37998;53.416;6.730;2022-12-07T05:42:44;4.80;99.90
51982;DHT22;37998;53.416;6.730;2022-12-07T05:45:10;4.80;99.90
51982;DHT22;37998;53.416;6.730;2022-12-07T05:47:36;4.80;99.90
51982;DHT22;37998;53.416;6.730;2022-12-07T05:50:03;4.80;99.90
51982;DHT22;37998;53.416;6.730;2022-12-07T05:52:29;4.80;99.90
51982;DHT22;37998;53.416;6.730;2022-12-07T05:54:55;4.90;99.90
51982;DHT22;37998;53.416;6.730;2022-12-07T05:57:20;4.90;99.90
51982;DHT22;37998;53.416;6.730;2022-12-07T05:59:46;5.00;99.90
51982;DHT22;37998;53.416;6.730;2022-12-07T06:02:13;5.10;99.90
51982;DHT22;37998;53.416;6.730;2022-12-07T06:04:43;5.30;99.90
51982;DHT22;37998;53.416;6.730;2022-12-07T06:07:10;5.10;99.90
51982;DHT22;37998;53.416;6.730;2022-12-07T06:09:36;5.10;99.90
51982;DHT22;37998;53.416;6.730;2022-12-07T06:12:03;5.00;99.90
51982;DHT22;37998;53.416;6.730;2022-12-07T06:14:47;5.00;99.90
51982;DHT22;37998;53.416;6.730;2022-12-07T06:17:13;4.90;99.90
51982;DHT22;37998;53.416;6.730;2022-12-07T06:19:39;4.90;99.90
51982;DHT22;37998;53.416;6.730;2022-12-07T06:22:06;4.90;99.90
51982;DHT22;37998;53.416;6.730;2022-12-07T06:24:32;5.00;99.90
51982;DHT22;37998;53.416;6.730;2022-12-07T06:26:58;5.00;99.90
51982;DHT22;37998;53.416;6.730;2022-12-07T06:29:24;5.00;99.90
51982;DHT22;37998;53.416;6.730;2022-12-07T06:31:50;5.00;99.90
51982;DHT22;37998;53.416;6.730;2022-12-07T06:34:18;5.00;99.90
51982;DHT22;37998;53.416;6.730;2022-12-07T06:36:44;4.90;99.90
51982;DHT22;37998;53.416;6.730;2022-12-07T06:39:11;4.90;99.90
51982;DHT22;37998;53.416;6.730;2022-12-07T06:41:37;4.90;99.90
51982;DHT22;37998;53.416;6.730;2022-12-07T06:44:06;4.80;99.90
51982;DHT22;37998;53.416;6.730;2022-12-07T06:46:32;4.80;99.90
51982;DHT22;37998;53.416;6.730;2022-12-07T06:48:59;4.70;99.90
51982;DHT22;37998;53.416;6.730;2022-12-07T06:51:25;4.70;99.90
51982;DHT22;37998;53.416;6.730;2022-12-07T06:53:51;4.70;99.90
51982;DHT22;37998;53.416;6.730;2022-12-07T06:56:16;4.80;99.90
51982;DHT22;37998;53.416;6.730;2022-12-07T06:58:42;4.90;99.90
51982;DHT22;37998;53.416;6.730;2022-12-07T07:01:10;4.90;99.90
51982;DHT22;37998;53.416;6.730;2022-12-07T07:03:35;5.00;99.90
51982;DHT22;37998;53.416;6.730;2022-12-07T07:06:01;5.00;99.90
51982;DHT22;37998;53.416;6.730;2022-12-07T07:08:26;5.00;99.90
51982;DHT22;37998;53.416;6.730;2022-12-07T07:10:52;4.90;99.90
51982;DHT22;37998;53.416;6.730;2022-12-07T07:13:18;4.90;99.90
51982;DHT22;37998;53.416;6.730;2022-12-07T07:15:43;4.90;99.90
51982;DHT22;37998;53.416;6.730;2022-12-07T07:18:09;4.90;99.90
51982;DHT22;37998;53.416;6.730;2022-12-07T07:20:35;4.90;99.90
51982;DHT22;37998;53.416;6.730;2022-12-07T07:23:01;4.90;99.90
51982;DHT22;37998;53.416;6.730;2022-12-07T07:25:26;4.90;99.90
51982;DHT22;37998;53.416;6.730;2022-12-07T07:27:52;4.80;99.90
51982;DHT22;37998;53.416;6.730;2022-12-07T07:30:17;4.90;99.90
51982;DHT22;37998;53.416;6.730;2022-12-07T07:32:43;4.90;99.90
51982;DHT22;37998;53.416;6.730;2022-12-07T07:35:09;4.90;99.90
51982;DHT22;37998;53.416;6.730;2022-12-07T07:37:37;5.00;99.90
51982;DHT22;37998;53.416;6.730;2022-12-07T07:40:03;5.20;99.90
51982;DHT22;37998;53.416;6.730;2022-12-07T07:42:29;5.00;99.90
51982;DHT22;37998;53.416;6.730;2022-12-07T07:44:55;5.00;99.90
51982;DHT22;37998;53.416;6.730;2022-12-07T07:47:20;5.00;99.90
51982;DHT22;37998;53.416;6.730;2022-12-07T07:49:46;5.00;99.90
51982;DHT22;37998;53.416;6.730;2022-12-07T07:52:11;5.00;99.90
51982;DHT22;37998;53.416;6.730;2022-12-07T07:54:37;4.90;99.90
51982;DHT22;37998;53.416;6.730;2022-12-07T07:57:03;5.00;99.90
51982;DHT22;37998;53.416;6.730;2022-12-07T07:59:28;5.00;99.90
51982;DHT22;37998;53.416;6.730;2022-12-07T08:01:54;5.00;99.90
51982;DHT22;37998;53.416;6.730;2022-12-07T08:04:20;5.00;99.90
51982;DHT22;37998;53.416;6.730;2022-12-07T08:06:45;5.10;99.90
51982;DHT22;37998;53.416;6.730;2022-12-07T08:09:12;5.10;99.90
51982;DHT22;37998;53.416;6.730;2022-12-07T08:11:37;5.20;99.90
51982;DHT22;37998;53.416;6.730;2022-12-07T08:14:03;5.20;99.90
51982;DHT22;37998;53.416;6.730;2022-12-07T08:16:29;5.20;99.90
51982;DHT22;37998;53.416;6.730;2022-12-07T08:18:54;5.20;99.90
51982;DHT22;37998;53.416;6.730;2022-12-07T08:21:20;5.30;99.90
51982;DHT22;37998;53.416;6.730;2022-12-07T08:23:46;5.30;99.90
51982;DHT22;37998;53.416;6.730;2022-12-07T08:26:16;5.30;99.90
51982;DHT22;37998;53.416;6.730;2022-12-07T08:28:42;5.30;99.90
51982;DHT22;37998;53.416;6.730;2022-12-07T08:31:15;5.10;99.90
51982;DHT22;37998;53.416;6.730;2022-12-07T08:33:41;5.00;99.90
51982;DHT22;37998;53.416;6.730;2022-12-07T08:36:11;5.60;99.90
51982;DHT22;37998;53.416;6.730;2022-12-07T08:38:39;4.90;99.90
51982;DHT22;37998;53.416;6.730;2022-12-07T08:41:05;4.90;99.90
51982;DHT22;37998;53.416;6.730;2022-12-07T08:43:31;4.90;99.90
51982;DHT22;37998;53.416;6.730;2022-12-07T08:48:28;4.90;99.90
51982;DHT22;37998;53.416;6.730;2022-12-07T08:50:55;5.00;99.90
51982;DHT22;37998;53.416;6.730;2022-12-07T08:53:21;5.00;99.90
51982;DHT22;37998;53.416;6.730;2022-12-07T08:55:48;5.00;99.90
51982;DHT22;37998;53.416;6.730;2022-12-07T08:58:14;5.00;99.90
51982;DHT22;37998;53.416;6.730;2022-12-07T09:00:40;5.10;99.90
51982;DHT22;37998;53.416;6.730;2022-12-07T09:03:05;5.10;99.90
51982;DHT22;37998;53.416;6.730;2022-12-07T09:05:32;5.10;99.90
51982;DHT22;37998;53.416;6.730;2022-12-07T09:08:00;5.10;99.90
51982;DHT22;37998;53.416;6.730;2022-12-07T09:10:27;5.20;99.90
51982;DHT22;37998;53.416;6.730;2022-12-07T09:12:53;5.20;99.90
51982;DHT22;37998;53.416;6.730;2022-12-07T09:15:19;5.30;99.90
51982;DHT22;37998;53.416;6.730;2022-12-07T09:17:44;5.40;99.90
51982;DHT22;37998;53.416;6.730;2022-12-07T09:20:10;5.40;99.90
51982;DHT22;37998;53.416;6.730;2022-12-07T09:22:36;5.40;99.90
51982;DHT22;37998;53.416;6.730;2022-12-07T09:25:03;5.50;99.90
51982;DHT22;37998;53.416;6.730;2022-12-07T09:27:29;5.50;99.90
51982;DHT22;37998;53.416;6.730;2022-12-07T09:29:55;5.50;99.90
51982;DHT22;37998;53.416;6.730;2022-12-07T09:32:21;5.50;99.90
51982;DHT22;37998;53.416;6.730;2022-12-07T09:34:47;5.50;99.90
51982;DHT22;37998;53.416;6.730;2022-12-07T09:37:13;5.50;99.90
51982;DHT22;37998;53.416;6.730;2022-12-07T09:39:39;5.50;99.90
51982;DHT22;37998;53.416;6.730;2022-12-07T09:42:06;5.50;99.90
51982;DHT22;37998;53.416;6.730;2022-12-07T09:44:33;5.60;99.90
51982;DHT22;37998;53.416;6.730;2022-12-07T09:47:00;5.60;99.90
51982;DHT22;37998;53.416;6.730;2022-12-07T09:49:29;5.70;99.90
51982;DHT22;37998;53.416;6.730;2022-12-07T09:54:44;5.60;99.90
51982;DHT22;37998;53.416;6.730;2022-12-07T09:57:11;5.50;99.90
51982;DHT22;37998;53.416;6.730;2022-12-07T09:59:38;5.40;99.90
51982;DHT22;37998;53.416;6.730;2022-12-07T10:02:26;5.40;99.90
51982;DHT22;37998;53.416;6.730;2022-12-07T10:04:55;5.30;99.90
51982;DHT22;37998;53.416;6.730;2022-12-07T10:07:21;5.30;99.90
51982;DHT22;37998;53.416;6.730;2022-12-07T10:09:46;5.30;99.90
51982;DHT22;37998;53.416;6.730;2022-12-07T10:12:12;5.30;99.90
51982;DHT22;37998;53.416;6.730;2022-12-07T10:14:52;5.30;99.90
51982;DHT22;37998;53.416;6.730;2022-12-07T10:17:39;5.30;99.90
51982;DHT22;37998;53.416;6.730;2022-12-07T10:20:26;5.30;99.90
51982;DHT22;37998;53.416;6.730;2022-12-07T10:22:59;5.40;99.90
51982;DHT22;37998;53.416;6.730;2022-12-07T10:25:29;5.40;99.90
51982;DHT22;37998;53.416;6.730;2022-12-07T10:30:34;5.50;99.90
51982;DHT22;37998;53.416;6.730;2022-12-07T10:35:54;5.60;99.90
51982;DHT22;37998;53.416;6.730;2022-12-07T10:38:20;5.60;99.90
51982;DHT22;37998;53.416;6.730;2022-12-07T10:40:46;5.70;99.90
51982;DHT22;37998;53.416;6.730;2022-12-07T10:48:55;5.70;99.90
51982;DHT22;37998;53.416;6.730;2022-12-07T10:51:55;5.70;99.90
51982;DHT22;37998;53.416;6.730;2022-12-07T10:54:26;5.70;99.90
51982;DHT22;37998;53.416;6.730;2022-12-07T10:57:24;5.70;99.90
51982;DHT22;37998;53.416;6.730;2022-12-07T10:59:53;5.80;99.90
51982;DHT22;37998;53.416;6.730;2022-12-07T11:05:04;5.90;99.90
51982;DHT22;37998;53.416;6.730;2022-12-07T11:07:38;6.00;99.90
51982;DHT22;37998;53.416;6.730;2022-12-07T11:10:13;6.00;99.90
51982;DHT22;37998;53.416;6.730;2022-12-07T11:13:10;5.90;99.90
51982;DHT22;37998;53.416;6.730;2022-12-07T11:18:24;5.90;99.90
51982;DHT22;37998;53.416;6.730;2022-12-07T11:37:33;6.30;99.90
51982;DHT22;37998;53.416;6.730;2022-12-07T11:40:24;6.20;99.90
51982;DHT22;37998;53.416;6.730;2022-12-07T11:42:52;6.00;99.90
51982;DHT22;37998;53.416;6.730;2022-12-07T11:45:31;5.90;99.90
51982;DHT22;37998;53.416;6.730;2022-12-07T11:48:03;5.90;99.90
51982;DHT22;37998;53.416;6.730;2022-12-07T11:50:54;5.90;99.90
51982;DHT22;37998;53.416;6.730;2022-12-07T11:53:48;5.90;99.90
51982;DHT22;37998;53.416;6.730;2022-12-07T11:56:17;5.90;99.90
51982;DHT22;37998;53.416;6.730;2022-12-07T12:01:35;5.90;99.90
51982;DHT22;37998;53.416;6.730;2022-12-07T12:06:41;6.00;99.90
51982;DHT22;37998;53.416;6.730;2022-12-07T12:20:36;6.20;99.90
51982;DHT22;37998;53.416;6.730;2022-12-07T12:23:00;6.20;99.90
51982;DHT22;37998;53.416;6.730;2022-12-07T12:25:34;6.30;99.90
51982;DHT22;37998;53.416;6.730;2022-12-07T12:28:01;6.30;99.90
51982;DHT22;37998;53.416;6.730;2022-12-07T12:33:24;6.30;99.90
51982;DHT22;37998;53.416;6.730;2022-12-07T12:41:53;6.40;99.90
51982;DHT22;37998;53.416;6.730;2022-12-07T12:47:38;6.40;99.90
51982;DHT22;37998;53.416;6.730;2022-12-07T12:50:17;6.50;99.90
51982;DHT22;37998;53.416;6.730;2022-12-07T12:57:34;6.60;99.90
51982;DHT22;37998;53.416;6.730;2022-12-07T13:00:21;6.60;99.90
51982;DHT22;37998;53.416;6.730;2022-12-07T13:02:52;6.50;99.90
51982;DHT22;37998;53.416;6.730;2022-12-07T13:05:24;6.50;99.90
51982;DHT22;37998;53.416;6.730;2022-12-07T13:10:40;6.30;99.90
51982;DHT22;37998;53.416;6.730;2022-12-07T13:15:54;5.80;99.90
51982;DHT22;37998;53.416;6.730;2022-12-07T13:31:45;5.50;99.90
51982;DHT22;37998;53.416;6.730;2022-12-07T13:34:30;5.50;99.90
51982;DHT22;37998;53.416;6.730;2022-12-07T13:36:57;5.50;99.90
51982;DHT22;37998;53.416;6.730;2022-12-07T13:39:25;5.40;99.90
51982;DHT22;37998;53.416;6.730;2022-12-07T13:41:57;5.50;99.90
51982;DHT22;37998;53.416;6.730;2022-12-07T13:44:24;5.60;99.90
51982;DHT22;37998;53.416;6.730;2022-12-07T13:49:57;5.40;99.90
51982;DHT22;37998;53.416;6.730;2022-12-07T13:52:30;5.40;99.90
51982;DHT22;37998;53.416;6.730;2022-12-07T13:54:57;5.40;99.90
51982;DHT22;37998;53.416;6.730;2022-12-07T13:57:28;5.40;99.90
51982;DHT22;37998;53.416;6.730;2022-12-07T13:59:56;5.40;99.90
51982;DHT22;37998;53.416;6.730;2022-12-07T14:02:33;5.40;99.90
51982;DHT22;37998;53.416;6.730;2022-12-07T14:05:14;5.40;99.90
51982;DHT22;37998;53.416;6.730;2022-12-07T14:08:00;5.40;99.90
51982;DHT22;37998;53.416;6.730;2022-12-07T14:10:34;5.40;99.90
51982;DHT22;37998;53.416;6.730;2022-12-07T14:13:03;5.40;99.90
51982;DHT22;37998;53.416;6.730;2022-12-07T14:15:33;5.40;99.90
51982;DHT22;37998;53.416;6.730;2022-12-07T14:18:01;5.40;99.90
51982;DHT22;37998;53.416;6.730;2022-12-07T14:20:40;5.40;99.90
51982;DHT22;37998;53.416;6.730;2022-12-07T14:23:24;5.30;99.90
51982;DHT22;37998;53.416;6.730;2022-12-07T14:25:52;5.30;99.90
51982;DHT22;37998;53.416;6.730;2022-12-07T14:28:35;5.30;99.90
51982;DHT22;37998;53.416;6.730;2022-12-07T14:31:02;5.30;99.90
51982;DHT22;37998;53.416;6.730;2022-12-07T14:33:28;5.30;99.90
51982;DHT22;37998;53.416;6.730;2022-12-07T14:35:55;5.30;99.90
51982;DHT22;37998;53.416;6.730;2022-12-07T14:38:23;5.30;99.90
51982;DHT22;37998;53.416;6.730;2022-12-07T14:40:53;5.30;99.90
51982;DHT22;37998;53.416;6.730;2022-12-07T14:43:20;5.30;99.90
51982;DHT22;37998;53.416;6.730;2022-12-07T14:45:46;4.40;99.90
51982;DHT22;37998;53.416;6.730;2022-12-07T14:48:14;5.30;99.90
51982;DHT22;37998;53.416;6.730;2022-12-07T14:50:49;5.20;99.90
51982;DHT22;37998;53.416;6.730;2022-12-07T14:53:17;5.20;99.90
51982;DHT22;37998;53.416;6.730;2022-12-07T14:55:44;5.10;99.90
51982;DHT22;37998;53.416;6.730;2022-12-07T14:58:17;5.00;99.90
51982;DHT22;37998;53.416;6.730;2022-12-07T15:00:43;4.90;99.90
51982;DHT22;37998;53.416;6.730;2022-12-07T15:03:09;4.70;99.90
51982;DHT22;37998;53.416;6.730;2022-12-07T15:05:36;4.60;99.90
51982;DHT22;37998;53.416;6.730;2022-12-07T15:08:02;4.50;99.90
51982;DHT22;37998;53.416;6.730;2022-12-07T15:10:30;4.50;99.90
51982;DHT22;37998;53.416;6.730;2022-12-07T15:13:02;4.40;99.90
51982;DHT22;37998;53.416;6.730;2022-12-07T15:15:51;4.40;99.90
51982;DHT22;37998;53.416;6.730;2022-12-07T15:18:18;4.40;99.90
51982;DHT22;37998;53.416;6.730;2022-12-07T15:20:44;4.50;99.90
51982;DHT22;37998;53.416;6.730;2022-12-07T15:23:10;4.50;99.90
51982;DHT22;37998;53.416;6.730;2022-12-07T15:25:36;4.50;99.90
51982;DHT22;37998;53.416;6.730;2022-12-07T15:28:02;4.50;99.90
51982;DHT22;37998;53.416;6.730;2022-12-07T15:30:28;4.60;99.90
51982;DHT22;37998;53.416;6.730;2022-12-07T15:32:54;4.50;99.90
51982;DHT22;37998;53.416;6.730;2022-12-07T15:35:20;4.60;99.90
51982;DHT22;37998;53.416;6.730;2022-12-07T15:37:45;4.60;99.90
51982;DHT22;37998;53.416;6.730;2022-12-07T15:40:13;4.50;99.90
51982;DHT22;37998;53.416;6.730;2022-12-07T15:42:39;4.50;99.90
51982;DHT22;37998;53.416;6.730;2022-12-07T15:45:06;4.30;99.90
51982;DHT22;37998;53.416;6.730;2022-12-07T15:47:40;3.90;99.90
51982;DHT22;37998;53.416;6.730;2022-12-07T15:50:09;3.50;99.90
51982;DHT22;37998;53.416;6.730;2022-12-07T15:52:36;3.30;99.90
51982;DHT22;37998;53.416;6.730;2022-12-07T15:55:02;3.20;99.90
51982;DHT22;37998;53.416;6.730;2022-12-07T15:57:29;3.10;99.90
51982;DHT22;37998;53.416;6.730;2022-12-07T15:59:55;3.10;99.90
51982;DHT22;37998;53.416;6.730;2022-12-07T16:02:21;3.10;99.90
51982;DHT22;37998;53.416;6.730;2022-12-07T16:04:48;3.10;99.90
51982;DHT22;37998;53.416;6.730;2022-12-07T16:07:13;3.20;99.90
51982;DHT22;37998;53.416;6.730;2022-12-07T16:09:41;3.40;99.90
51982;DHT22;37998;53.416;6.730;2022-12-07T16:12:07;3.40;99.90
51982;DHT22;37998;53.416;6.730;2022-12-07T16:14:33;3.50;99.90
51982;DHT22;37998;53.416;6.730;2022-12-07T16:16:59;3.50;99.90
51982;DHT22;37998;53.416;6.730;2022-12-07T16:19:25;3.50;99.90
51982;DHT22;37998;53.416;6.730;2022-12-07T16:21:50;3.50;99.90
51982;DHT22;37998;53.416;6.730;2022-12-07T16:24:16;3.40;99.90
51982;DHT22;37998;53.416;6.730;2022-12-07T16:26:42;3.40;99.90
51982;DHT22;37998;53.416;6.730;2022-12-07T16:29:11;3.30;99.90
51982;DHT22;37998;53.416;6.730;2022-12-07T16:31:37;3.20;99.90
51982;DHT22;37998;53.416;6.730;2022-12-07T16:34:03;3.20;99.90
51982;DHT22;37998;53.416;6.730;2022-12-07T16:36:28;3.10;99.90
51982;DHT22;37998;53.416;6.730;2022-12-07T16:38:54;3.00;99.90
51982;DHT22;37998;53.416;6.730;2022-12-07T16:41:20;2.90;99.90
51982;DHT22;37998;53.416;6.730;2022-12-07T16:43:46;2.90;99.90
51982;DHT22;37998;53.416;6.730;2022-12-07T16:46:12;2.80;99.90
51982;DHT22;37998;53.416;6.730;2022-12-07T16:48:39;2.80;99.90
51982;DHT22;37998;53.416;6.730;2022-12-07T16:51:06;2.80;99.90
51982;DHT22;37998;53.416;6.730;2022-12-07T16:53:35;2.70;99.90
51982;DHT22;37998;53.416;6.730;2022-12-07T16:56:01;2.70;99.90
51982;DHT22;37998;53.416;6.730;2022-12-07T16:58:27;2.70;99.90
51982;DHT22;37998;53.416;6.730;2022-12-07T17:00:53;2.70;99.90
51982;DHT22;37998;53.416;6.730;2022-12-07T17:03:19;2.60;99.90
51982;DHT22;37998;53.416;6.730;2022-12-07T17:05:45;2.60;99.90
51982;DHT22;37998;53.416;6.730;2022-12-07T17:08:12;2.60;99.90
51982;DHT22;37998;53.416;6.730;2022-12-07T17:10:42;2.60;99.90
51982;DHT22;37998;53.416;6.730;2022-12-07T17:13:10;2.70;99.90
51982;DHT22;37998;53.416;6.730;2022-12-07T17:16:00;2.70;99.90
51982;DHT22;37998;53.416;6.730;2022-12-07T17:18:28;2.70;99.90
51982;DHT22;37998;53.416;6.730;2022-12-07T17:21:05;2.70;99.90
51982;DHT22;37998;53.416;6.730;2022-12-07T17:23:31;2.80;99.90
51982;DHT22;37998;53.416;6.730;2022-12-07T17:26:11;2.80;99.90
51982;DHT22;37998;53.416;6.730;2022-12-07T17:28:37;2.80;99.90
51982;DHT22;37998;53.416;6.730;2022-12-07T17:31:07;2.90;99.90
51982;DHT22;37998;53.416;6.730;2022-12-07T17:33:33;3.00;99.90
51982;DHT22;37998;53.416;6.730;2022-12-07T17:36:00;3.00;99.90
51982;DHT22;37998;53.416;6.730;2022-12-07T17:38:27;3.10;99.90
51982;DHT22;37998;53.416;6.730;2022-12-07T17:40:53;4.30;99.90
51982;DHT22;37998;53.416;6.730;2022-12-07T17:43:18;3.10;99.90
51982;DHT22;37998;53.416;6.730;2022-12-07T17:45:44;4.50;99.90
51982;DHT22;37998;53.416;6.730;2022-12-07T17:48:09;3.10;99.90
51982;DHT22;37998;53.416;6.730;2022-12-07T17:50:35;3.20;99.90
51982;DHT22;37998;53.416;6.730;2022-12-07T17:53:19;3.20;99.90
51982;DHT22;37998;53.416;6.730;2022-12-07T17:55:45;3.20;99.90
51982;DHT22;37998;53.416;6.730;2022-12-07T17:58:11;3.20;99.90
51982;DHT22;37998;53.416;6.730;2022-12-07T18:00:36;3.20;99.90
51982;DHT22;37998;53.416;6.730;2022-12-07T18:03:05;3.30;99.90
51982;DHT22;37998;53.416;6.730;2022-12-07T18:05:32;3.30;99.90
51982;DHT22;37998;53.416;6.730;2022-12-07T18:07:58;3.30;99.90